Time;durP1;ratioP1;P1;durP2;ratioP2;P2;SDS_P1;SDS_P2;PMS_P1;PMS_P2;Temp;Humidity;BMP_temperature;BMP_pressure;BME280_temperature;BME280_humidity;BME280_pressure;Samples;Min_cycle;Max_cycle;Signal;HPM_P1;HPM_P2
2021/01/04 00:01:00;;;;;;;45.07;31.73;;;;;;;2.31;93.67;99659.40;1758608;80;25288;-69
2021/01/04 00:03:41;;;;;;;42.97;30.80;;;;;;;2.25;93.60;99657.92;1758475;80;25081;-68
2021/01/04 00:06:22;;;;;;;45.17;30.33;;;;;;;2.18;93.66;99653.44;1758645;80;25364;-67
2021/01/04 00:09:31;;;;;;;46.07;31.67;;;;;;;2.17;93.75;99660.83;1758630;80;25759;-68
2021/01/04 00:12:15;;;;;;;44.17;31.77;;;;;;;2.13;93.74;99659.28;1758624;80;25364;-68
2021/01/04 00:15:02;;;;;;;42.23;31.77;;;;;;;2.13;93.85;99650.20;1758547;80;25644;-67
2021/01/04 00:18:10;;;;;;;39.63;28.90;;;;;;;2.15;93.85;99648.38;1758548;80;25554;-67
2021/01/04 00:20:48;;;;;;;44.30;29.80;;;;;;;2.15;93.80;99647.08;1758553;80;25103;-68
2021/01/04 00:23:52;;;;;;;43.00;30.33;;;;;;;2.13;93.88;99647.61;1758242;80;25100;-68
2021/01/04 00:26:27;;;;;;;41.13;29.37;;;;;;;2.18;93.99;99643.06;1758494;80;25106;-68
2021/01/04 00:28:53;;;;;;;41.33;29.70;;;;;;;2.21;93.98;99648.13;1757444;80;25222;-69
2021/01/04 00:31:28;;;;;;;37.07;27.10;;;;;;;2.22;93.87;99657.58;1758629;80;25099;-67
2021/01/04 00:34:09;;;;;;;39.23;28.60;;;;;;;2.23;93.82;99649.36;1758763;81;25217;-67
2021/01/04 00:37:11;;;;;;;38.13;27.03;;;;;;;2.23;93.86;99650.20;1758663;81;25278;-67
2021/01/04 00:40:26;;;;;;;42.67;30.30;;;;;;;2.18;93.68;99650.85;1758696;80;25371;-67
2021/01/04 00:42:53;;;;;;;37.27;26.77;;;;;;;2.16;93.82;99644.89;1758506;80;25611;-72
2021/01/04 00:45:28;;;;;;;41.87;29.17;;;;;;;2.12;93.77;99649.80;1758636;80;25171;-69
2021/01/04 00:48:11;;;;;;;36.63;25.53;;;;;;;2.09;93.83;99657.71;1758884;81;25222;-68
2021/01/04 00:51:10;;;;;;;40.03;28.00;;;;;;;2.07;93.92;99653.05;1713478;81;25926;-70
2021/01/04 00:53:43;;;;;;;40.93;28.17;;;;;;;2.04;93.95;99655.77;1713311;82;25080;-69
2021/01/04 00:56:45;;;;;;;37.93;26.17;;;;;;;1.99;93.94;99656.41;1714810;82;25171;-69
2021/01/04 00:59:43;;;;;;;37.83;27.53;;;;;;;1.99;94.00;99653.82;1731883;82;25247;-68
2021/01/04 01:02:45;;;;;;;34.60;24.37;;;;;;;1.98;94.04;99650.39;1849763;76;27362;-67
2021/01/04 01:05:38;;;;;;;38.33;28.47;;;;;;;1.92;94.37;99658.88;1819417;78;25271;-67
2021/01/04 01:08:22;;;;;;;37.73;27.77;;;;;;;1.93;94.23;99657.95;1819815;78;25251;-67
2021/01/04 01:11:03;;;;;;;43.57;29.63;;;;;;;1.96;94.05;99651.35;1819748;77;25289;-70
2021/01/04 01:14:01;;;;;;;36.90;26.80;;;;;;;1.94;93.96;99654.47;1819852;78;25302;-68
2021/01/04 01:16:40;;;;;;;38.77;27.70;;;;;;;1.92;94.03;99657.13;1818849;78;25622;-68
2021/01/04 01:19:32;;;;;;;36.87;27.50;;;;;;;1.94;94.12;99649.28;1812224;77;25705;-68
2021/01/04 01:21:58;;;;;;;38.20;27.83;;;;;;;1.94;94.02;99645.39;1819709;77;25737;-68
2021/01/04 01:24:25;;;;;;;36.20;26.40;;;;;;;1.88;94.01;99646.50;1819783;78;25241;-70
2021/01/04 01:27:36;;;;;;;35.10;24.87;;;;;;;1.90;94.05;99645.14;1819747;77;25196;-69
2021/01/04 01:30:09;;;;;;;37.50;27.30;;;;;;;1.87;94.22;99660.83;1819183;77;25291;-69
2021/01/04 01:33:02;;;;;;;38.77;27.50;;;;;;;1.85;94.10;99675.98;1819892;78;25223;-69
2021/01/04 01:35:57;;;;;;;41.10;28.60;;;;;;;1.87;94.26;99672.03;1819369;78;25262;-69
2021/01/04 01:38:48;;;;;;;41.53;28.60;;;;;;;1.97;94.39;99667.31;1811550;77;25705;-69
2021/01/04 01:41:41;;;;;;;37.03;26.47;;;;;;;2.03;94.25;99664.48;1764562;78;25266;-69
2021/01/04 01:44:30;;;;;;;35.10;27.23;;;;;;;2.02;94.12;99673.16;1819456;78;25195;-69
2021/01/04 01:47:14;;;;;;;42.83;28.63;;;;;;;1.98;94.04;99659.47;1819700;77;25681;-69
2021/01/04 01:50:08;;;;;;;39.73;27.03;;;;;;;1.99;94.04;99651.23;1819640;78;25298;-69
2021/01/04 01:52:49;;;;;;;37.83;27.87;;;;;;;2.00;94.07;99667.20;1787452;79;25277;-68
2021/01/04 01:55:50;;;;;;;37.10;27.03;;;;;;;2.02;94.10;99662.78;1787476;80;25194;-68
2021/01/04 01:58:43;;;;;;;38.13;27.83;;;;;;;2.09;94.05;99655.58;1787506;79;25297;-68
2021/01/04 02:01:22;;;;;;;34.47;24.50;;;;;;;2.02;93.79;99648.51;1791087;79;25190;-68
2021/01/04 02:04:21;;;;;;;39.97;26.53;;;;;;;1.99;93.77;99653.36;1796567;79;25186;-68
2021/01/04 02:07:05;;;;;;;37.17;27.43;;;;;;;1.99;93.91;99651.23;1796405;79;25216;-67
2021/01/04 02:09:51;;;;;;;38.73;27.67;;;;;;;2.02;93.83;99652.40;1796428;79;25281;-67
2021/01/04 02:12:53;;;;;;;36.67;28.07;;;;;;;2.06;93.87;99662.19;1796104;78;25719;-67
2021/01/04 02:15:28;;;;;;;38.67;26.47;;;;;;;2.08;93.70;99657.77;1795948;78;25213;-67
2021/01/04 02:18:22;;;;;;;35.80;26.57;;;;;;;2.06;93.58;99668.21;1795804;79;25720;-67
2021/01/04 02:21:13;;;;;;;36.07;26.20;;;;;;;2.04;93.54;99666.14;1795667;79;25707;-68
2021/01/04 02:24:09;;;;;;;48.67;32.47;;;;;;;2.00;93.57;99682.76;1795879;79;25675;-68
2021/01/04 02:26:39;;;;;;;42.27;30.43;;;;;;;1.99;93.63;99688.37;1795789;78;25688;-68
2021/01/04 02:29:12;;;;;;;36.03;27.00;;;;;;;2.04;93.74;99676.09;1795755;79;25055;-68
2021/01/04 02:31:40;;;;;;;38.43;26.97;;;;;;;2.07;93.75;99667.78;1795753;78;25293;-68
2021/01/04 02:34:09;;;;;;;39.03;26.87;;;;;;;2.03;93.58;99665.77;1795736;78;25069;-68
2021/01/04 02:36:41;;;;;;;41.47;30.30;;;;;;;2.04;93.70;99678.69;1795777;78;25268;-67
2021/01/04 02:39:28;;;;;;;38.57;27.43;;;;;;;2.09;93.70;99681.06;1770113;78;25253;-68
2021/01/04 02:42:07;;;;;;;33.90;25.10;;;;;;;2.07;93.65;99668.61;1789996;78;25217;-68
2021/01/04 02:44:33;;;;;;;38.27;27.20;;;;;;;2.03;93.55;99674.39;1795286;79;25269;-68
2021/01/04 02:47:47;;;;;;;37.20;26.90;;;;;;;2.01;93.62;99671.02;1795658;78;25265;-68
2021/01/04 02:51:00;;;;;;;40.57;28.67;;;;;;;2.00;93.63;99665.89;1795834;78;25265;-68
2021/01/04 02:53:53;;;;;;;35.70;27.03;;;;;;;2.00;93.74;99653.76;1795804;78;25059;-68
2021/01/04 02:56:47;;;;;;;40.00;28.13;;;;;;;2.05;93.74;99653.57;1795926;79;25293;-68
2021/01/04 02:59:28;;;;;;;39.83;28.57;;;;;;;2.03;93.64;99651.04;1795986;78;25290;-68
2021/01/04 03:02:11;;;;;;;41.93;28.90;;;;;;;1.98;93.48;99650.86;1766634;78;25592;-67
2021/01/04 03:04:37;;;;;;;39.73;28.10;;;;;;;1.98;93.50;99658.64;1788880;78;25316;-67
2021/01/04 03:07:26;;;;;;;39.67;29.73;;;;;;;1.96;93.20;99657.41;1795817;79;25214;-67
2021/01/04 03:09:54;;;;;;;41.77;29.47;;;;;;;1.89;93.24;99661.59;1795882;78;25118;-67
2021/01/04 03:12:30;;;;;;;36.03;27.23;;;;;;;1.88;93.45;99663.36;1795725;79;25202;-67
2021/01/04 03:15:46;;;;;;;39.30;28.90;;;;;;;1.90;93.53;99671.08;1795806;78;25071;-67
2021/01/04 03:18:34;;;;;;;33.33;24.27;;;;;;;1.92;93.62;99664.07;1732998;81;25874;-69
2021/01/04 03:21:01;;;;;;;39.57;28.30;;;;;;;1.92;93.53;99667.50;1795227;78;25339;-68
2021/01/04 03:23:29;;;;;;;38.53;28.47;;;;;;;1.88;93.55;99659.47;1769105;79;25193;-68
2021/01/04 03:26:03;;;;;;;35.77;26.50;;;;;;;1.88;93.63;99661.20;1795789;79;25635;-68
2021/01/04 03:28:32;;;;;;;39.27;27.83;;;;;;;1.88;93.64;99657.30;1795698;78;25273;-68
2021/01/04 03:31:01;;;;;;;37.27;28.43;;;;;;;1.87;93.67;99662.12;1795852;79;25213;-68
2021/01/04 03:33:27;;;;;;;36.03;27.07;;;;;;;1.87;93.72;99655.64;1795735;78;25620;-68
2021/01/04 03:35:54;;;;;;;38.53;28.27;;;;;;;1.87;93.67;99656.94;1795822;78;25289;-68
2021/01/04 03:38:21;;;;;;;36.33;26.97;;;;;;;1.86;93.72;99657.40;1795960;78;25281;-68
2021/01/04 03:40:49;;;;;;;39.90;29.17;;;;;;;1.88;93.73;99663.36;1795705;79;25312;-68
2021/01/04 03:43:16;;;;;;;34.37;26.20;;;;;;;1.89;93.81;99670.67;1795732;78;25324;-68
2021/01/04 03:45:42;;;;;;;39.40;27.53;;;;;;;1.89;93.76;99678.45;1795668;78;25783;-68
2021/01/04 03:48:09;;;;;;;39.30;28.37;;;;;;;1.88;93.72;99676.33;1795808;79;25245;-68
2021/01/04 03:50:36;;;;;;;38.97;28.27;;;;;;;1.89;93.76;99671.97;1795785;78;25205;-68
2021/01/04 03:53:04;;;;;;;33.03;24.80;;;;;;;1.91;93.79;99671.45;1795669;79;25676;-68
2021/01/04 03:55:30;;;;;;;34.50;26.77;;;;;;;1.92;93.79;99666.66;1795759;79;25190;-68
2021/01/04 03:57:57;;;;;;;39.33;27.47;;;;;;;1.92;93.79;99676.58;1795892;78;25632;-69
2021/01/04 04:00:24;;;;;;;37.17;27.43;;;;;;;1.96;93.93;99673.40;1795780;79;25280;-68
2021/01/04 04:02:53;;;;;;;36.90;25.87;;;;;;;2.00;93.91;99677.57;1788645;79;25355;-69
2021/01/04 04:05:19;;;;;;;36.63;26.53;;;;;;;2.04;93.81;99677.81;1786731;79;25708;-68
2021/01/04 04:07:46;;;;;;;39.43;28.33;;;;;;;2.04;93.75;99677.39;1786902;79;25281;-68
2021/01/04 04:10:16;;;;;;;37.27;28.50;;;;;;;2.03;93.73;99674.86;1786811;80;25261;-68
2021/01/04 04:12:43;;;;;;;39.83;28.70;;;;;;;2.07;93.80;99673.80;1786776;79;25700;-68
2021/01/04 04:15:12;;;;;;;38.43;27.50;;;;;;;2.08;93.71;99669.45;1786834;80;25205;-67
2021/01/04 04:17:39;;;;;;;35.80;27.13;;;;;;;2.04;93.61;99665.71;1786751;80;25214;-68
2021/01/04 04:20:11;;;;;;;40.07;28.37;;;;;;;2.11;93.78;99666.73;1786875;79;25282;-68
2021/01/04 04:22:38;;;;;;;37.70;27.23;;;;;;;2.15;93.75;99666.55;1786690;79;25633;-68
2021/01/04 04:25:07;;;;;;;35.77;25.97;;;;;;;2.22;93.75;99660.17;1786760;79;25264;-69
2021/01/04 04:27:34;;;;;;;38.03;28.03;;;;;;;2.18;93.15;99659.93;1786798;79;25115;-69
2021/01/04 04:30:01;;;;;;;37.70;28.83;;;;;;;2.11;93.11;99657.22;1786724;80;25768;-68
2021/01/04 04:32:28;;;;;;;38.77;27.90;;;;;;;2.03;93.14;99656.69;1756624;80;25209;-68
2021/01/04 04:34:54;;;;;;;37.57;28.13;;;;;;;1.98;93.18;99664.66;1786876;79;25748;-68
2021/01/04 04:37:21;;;;;;;40.00;29.40;;;;;;;1.94;93.26;99663.55;1786754;79;25175;-68
2021/01/04 04:39:47;;;;;;;35.80;24.60;;;;;;;1.87;93.19;99669.91;1786733;80;25262;-68
2021/01/04 04:42:15;;;;;;;33.43;25.93;;;;;;;1.80;93.31;99668.84;1786594;79;25716;-68
2021/01/04 04:45:04;;;;;;;40.50;27.70;;;;;;;1.71;93.34;99665.34;1786701;80;25743;-68
2021/01/04 04:47:43;;;;;;;37.70;25.47;;;;;;;1.69;93.58;99660.66;1786718;79;25399;-68
2021/01/04 04:50:37;;;;;;;37.83;27.97;;;;;;;1.72;93.62;99674.80;1786184;78;25250;-68
2021/01/04 04:53:32;;;;;;;39.17;28.10;;;;;;;1.69;93.60;99674.91;1786713;80;25707;-68
2021/01/04 04:56:10;;;;;;;37.53;28.80;;;;;;;1.67;93.61;99678.03;1786512;80;25616;-68
2021/01/04 04:58:59;;;;;;;39.93;29.47;;;;;;;1.70;93.77;99684.85;1785279;79;25328;-67
2021/01/04 05:01:34;;;;;;;38.20;28.43;;;;;;;1.75;93.85;99684.22;1787160;79;25323;-67
2021/01/04 05:04:10;;;;;;;41.27;30.00;;;;;;;1.78;93.86;99681.04;1795843;79;25197;-68
2021/01/04 05:06:49;;;;;;;42.00;28.63;;;;;;;1.81;93.72;99687.41;1795713;79;25260;-68
2021/01/04 05:09:38;;;;;;;37.10;25.33;;;;;;;1.78;93.67;99681.04;1795686;79;25628;-68
2021/01/04 05:12:39;;;;;;;39.50;28.23;;;;;;;1.74;93.68;99685.94;1795738;78;25475;-67
2021/01/04 05:15:19;;;;;;;44.73;30.70;;;;;;;1.67;93.75;99682.75;1795008;78;25230;-67
2021/01/04 05:18:19;;;;;;;39.07;28.73;;;;;;;1.68;93.95;99693.98;1795568;79;25047;-67
2021/01/04 05:21:26;;;;;;;41.23;29.87;;;;;;;1.68;94.06;99691.39;1795761;79;25308;-67
2021/01/04 05:24:43;;;;;;;39.20;28.63;;;;;;;1.68;94.03;99705.66;1795665;78;25343;-69
2021/01/04 05:27:39;;;;;;;42.17;29.73;;;;;;;1.73;94.05;99702.42;1795730;78;25205;-68
2021/01/04 05:30:28;;;;;;;47.07;31.47;;;;;;;1.80;94.18;99701.27;1795764;79;25225;-69
2021/01/04 05:33:03;;;;;;;45.43;30.57;;;;;;;1.88;94.23;99702.70;1795678;78;25379;-68
2021/01/04 05:35:30;;;;;;;40.40;28.77;;;;;;;1.87;93.97;99704.92;1795727;78;25272;-68
2021/01/04 05:38:37;;;;;;;39.77;28.17;;;;;;;1.83;93.93;99703.73;1795659;78;25067;-68
2021/01/04 05:41:27;;;;;;;43.33;30.80;;;;;;;1.78;93.92;99709.56;1732854;81;25193;-68
2021/01/04 05:44:28;;;;;;;42.23;28.77;;;;;;;1.76;94.04;99704.91;1784834;79;25469;-68
2021/01/04 05:47:21;;;;;;;36.93;25.80;;;;;;;1.77;94.18;99700.09;1795578;79;25736;-68
2021/01/04 05:50:13;;;;;;;43.57;30.53;;;;;;;1.78;94.23;99699.19;1780910;78;25573;-69
2021/01/04 05:52:37;;;;;;;49.57;34.10;;;;;;;1.76;94.20;99707.49;1795271;78;25624;-68
2021/01/04 05:55:05;;;;;;;42.27;29.07;;;;;;;1.73;94.21;99712.80;1795758;78;25272;-68
2021/01/04 05:57:32;;;;;;;46.63;32.00;;;;;;;1.74;94.31;99698.91;1795924;79;25319;-67
2021/01/04 05:59:58;;;;;;;46.53;31.93;;;;;;;1.75;94.41;99703.66;1743832;79;25600;-68
2021/01/04 06:02:34;;;;;;;49.73;33.50;;;;;;;1.77;94.40;99707.03;1795755;79;25186;-68
2021/01/04 06:05:13;;;;;;;49.50;33.30;;;;;;;1.79;94.47;99714.29;1795786;78;25850;-68
2021/01/04 06:07:44;;;;;;;47.57;32.83;;;;;;;1.79;94.58;99730.72;1795850;79;25190;-67
2021/01/04 06:10:22;;;;;;;48.17;32.67;;;;;;;1.83;94.58;99723.66;1795848;79;25134;-68
2021/01/04 06:12:57;;;;;;;49.93;33.17;;;;;;;1.92;94.55;99721.14;1818265;78;27773;-68
2021/01/04 06:15:33;;;;;;;52.30;35.70;;;;;;;1.89;94.61;99719.95;1789580;80;25284;-68
2021/01/04 06:18:08;;;;;;;46.87;31.60;;;;;;;1.93;94.68;99721.08;1788456;80;25296;-68
2021/01/04 06:20:43;;;;;;;47.33;32.67;;;;;;;1.95;94.45;99726.20;1788513;79;25281;-67
2021/01/04 06:23:18;;;;;;;51.37;34.40;;;;;;;1.94;94.35;99733.58;1782469;79;25324;-67
2021/01/04 06:25:45;;;;;;;50.33;33.97;;;;;;;1.98;94.48;99733.87;1789512;79;25224;-68
2021/01/04 06:28:11;;;;;;;52.10;34.13;;;;;;;2.01;94.38;99733.72;1789405;80;25289;-67
2021/01/04 06:30:40;;;;;;;47.57;32.60;;;;;;;2.02;94.40;99734.95;1789388;79;25273;-67
2021/01/04 06:33:14;;;;;;;46.50;32.13;;;;;;;2.02;94.34;99742.73;1789466;79;25305;-67
2021/01/04 06:35:41;;;;;;;48.97;33.33;;;;;;;2.02;94.39;99738.02;1789523;79;25313;-68
2021/01/04 06:38:27;;;;;;;44.60;29.43;;;;;;;2.03;94.43;99745.73;1789116;80;25795;-67
2021/01/04 06:40:54;;;;;;;47.47;33.17;;;;;;;2.03;94.35;99750.09;1789534;79;25328;-67
2021/01/04 06:43:33;;;;;;;48.63;33.43;;;;;;;2.04;94.47;99745.27;1789418;79;25764;-68
2021/01/04 06:46:36;;;;;;;44.77;30.30;;;;;;;2.08;94.46;99744.69;1781101;80;25308;-68
2021/01/04 06:49:16;;;;;;;47.87;33.37;;;;;;;2.10;94.38;99746.33;1789473;80;25369;-67
2021/01/04 06:52:03;;;;;;;50.70;34.20;;;;;;;2.12;94.36;99748.41;1749573;80;25248;-67
2021/01/04 06:55:07;;;;;;;49.70;31.70;;;;;;;2.13;94.29;99743.62;1784197;79;25704;-68
2021/01/04 06:58:04;;;;;;;50.73;34.00;;;;;;;2.12;94.13;99744.52;1784112;80;25201;-68
2021/01/04 07:00:39;;;;;;;55.03;35.77;;;;;;;2.13;94.29;99747.94;1783605;79;25675;-68
2021/01/04 07:03:41;;;;;;;50.80;33.70;;;;;;;2.15;94.25;99751.34;1784021;80;25222;-68
2021/01/04 07:06:41;;;;;;;47.67;30.47;;;;;;;2.17;94.22;99760.73;1784103;79;25218;-68
2021/01/04 07:09:30;;;;;;;52.07;34.30;;;;;;;2.12;94.08;99762.67;1784217;79;25293;-68
2021/01/04 07:12:04;;;;;;;43.70;29.60;;;;;;;2.06;94.16;99756.42;1777369;79;25290;-68
2021/01/04 07:15:05;;;;;;;45.17;31.00;;;;;;;2.06;94.17;99762.08;1760296;81;25282;-69
2021/01/04 07:18:13;;;;;;;55.87;36.63;;;;;;;2.00;94.03;99761.42;1767020;80;25278;-69
2021/01/04 07:21:02;;;;;;;54.67;37.17;;;;;;;1.97;94.23;99759.41;1764873;80;26005;-69
2021/01/04 07:24:05;;;;;;;56.27;35.10;;;;;;;1.94;94.19;99760.82;1764615;80;25192;-69
2021/01/04 07:27:18;;;;;;;56.63;38.27;;;;;;;1.92;94.24;99756.98;1730582;81;25156;-68
2021/01/04 07:30:24;;;;;;;56.87;35.67;;;;;;;1.91;94.30;99767.42;1764274;80;25709;-67
2021/01/04 07:33:04;;;;;;;58.67;37.07;;;;;;;1.89;94.36;99768.78;1764441;80;25698;-68
2021/01/04 07:35:43;;;;;;;63.33;39.17;;;;;;;1.88;94.46;99771.00;1752958;81;25278;-68
2021/01/04 07:38:36;;;;;;;57.97;37.40;;;;;;;1.91;94.43;99772.61;1764356;80;25215;-68
2021/01/04 07:41:38;;;;;;;53.10;35.13;;;;;;;1.94;94.56;99775.09;1764395;80;25732;-67
2021/01/04 07:44:46;;;;;;;56.20;36.57;;;;;;;1.98;94.56;99783.16;1764392;80;25361;-68
2021/01/04 07:47:37;;;;;;;55.10;36.30;;;;;;;1.98;94.66;99787.05;1764427;80;25337;-68
2021/01/04 07:50:29;;;;;;;56.97;37.50;;;;;;;1.98;94.60;99787.88;1738959;80;25211;-68
2021/01/04 07:53:37;;;;;;;54.77;37.67;;;;;;;2.06;94.73;99794.05;1764295;80;25601;-67
2021/01/04 07:56:32;;;;;;;58.47;35.57;;;;;;;2.13;94.62;99790.32;1764391;80;25070;-68
2021/01/04 07:59:23;;;;;;;52.90;37.57;;;;;;;2.18;94.66;99785.79;1764521;80;25227;-68
2021/01/04 08:02:38;;;;;;;51.30;34.47;;;;;;;2.17;94.53;99789.28;1763945;80;25270;-69
2021/01/04 08:06:04;;;;;;;51.17;36.47;;;;;;;2.21;94.52;99782.20;1764433;80;25329;-68
2021/01/04 08:08:51;;;;;;;51.63;36.13;;;;;;;2.21;94.54;99782.20;1764395;80;25159;-68
2021/01/04 08:11:46;;;;;;;41.97;29.23;;;;;;;2.28;94.48;99784.10;1763305;81;25726;-69
2021/01/04 08:14:44;;;;;;;43.20;29.03;;;;;;;2.26;94.30;99782.03;1753582;81;25314;-68
2021/01/04 08:17:31;;;;;;;49.63;32.93;;;;;;;2.20;94.25;99784.44;1687310;81;25812;-69
2021/01/04 08:19:58;;;;;;;47.20;30.40;;;;;;;2.14;94.31;99790.69;1752946;81;25741;-69
2021/01/04 08:22:49;;;;;;;50.57;37.00;;;;;;;2.15;94.42;99800.64;1731110;81;25337;-69
2021/01/04 08:25:47;;;;;;;53.00;35.53;;;;;;;2.13;94.48;99803.30;1753661;81;25278;-69
2021/01/04 08:28:36;;;;;;;53.50;36.60;;;;;;;2.15;94.67;99805.37;1753509;81;25203;-68
2021/01/04 08:31:13;;;;;;;57.93;40.00;;;;;;;2.15;94.70;99801.48;1753627;81;25263;-68
2021/01/04 08:33:56;;;;;;;62.73;41.63;;;;;;;2.17;94.78;99805.31;1753598;81;25329;-68
2021/01/04 08:36:48;;;;;;;58.50;40.67;;;;;;;2.25;94.96;99805.02;1733013;81;25259;-68
2021/01/04 08:39:23;;;;;;;57.40;40.20;;;;;;;2.30;94.89;99800.48;1753647;81;25236;-67
2021/01/04 08:42:13;;;;;;;56.30;39.77;;;;;;;2.32;94.92;99807.74;1753454;81;25368;-68
2021/01/04 08:44:44;;;;;;;47.13;35.10;;;;;;;2.35;94.84;99803.73;1751560;81;25658;-68
2021/01/04 08:47:21;;;;;;;48.00;33.90;;;;;;;2.31;94.85;99803.45;1711438;81;25369;-68
2021/01/04 08:49:48;;;;;;;58.17;35.67;;;;;;;2.27;94.85;99813.58;1752760;81;25686;-68
2021/01/04 08:52:17;;;;;;;43.57;31.23;;;;;;;2.26;94.95;99809.28;1753625;81;25223;-68
2021/01/04 08:54:44;;;;;;;47.83;34.07;;;;;;;2.23;95.10;99811.10;1753508;81;25238;-68
2021/01/04 08:57:17;;;;;;;51.53;36.23;;;;;;;2.23;95.02;99818.05;1753524;81;25689;-69
2021/01/04 09:00:05;;;;;;;46.70;33.90;;;;;;;2.25;95.10;99827.08;1753506;81;25275;-70
2021/01/04 09:02:41;;;;;;;47.10;32.63;;;;;;;2.27;95.22;99823.49;1730803;81;25157;-69
2021/01/04 09:05:12;;;;;;;47.80;34.50;;;;;;;2.33;95.23;99821.09;1753651;81;25620;-70
2021/01/04 09:07:51;;;;;;;50.07;34.93;;;;;;;2.35;95.14;99827.09;1753517;81;25290;-70
2021/01/04 09:10:46;;;;;;;45.33;32.93;;;;;;;2.40;95.13;99828.58;1753502;81;25270;-69
2021/01/04 09:13:35;;;;;;;51.80;36.60;;;;;;;2.44;95.15;99829.30;1753377;81;25706;-70
2021/01/04 09:16:26;;;;;;;50.27;34.97;;;;;;;2.46;95.04;99827.48;1753571;81;25682;-69
2021/01/04 09:19:08;;;;;;;52.17;36.57;;;;;;;2.48;95.06;99832.17;1753479;81;25333;-68
2021/01/04 09:21:39;;;;;;;52.50;36.80;;;;;;;2.49;95.06;99827.36;1753516;81;25753;-68
2021/01/04 09:24:11;;;;;;;48.80;35.93;;;;;;;2.53;95.02;99820.28;1753647;81;25298;-69
2021/01/04 09:26:39;;;;;;;57.17;38.07;;;;;;;2.55;94.98;99821.92;1739863;81;25211;-70
2021/01/04 09:29:29;;;;;;;56.27;37.70;;;;;;;2.56;94.94;99829.25;1753518;81;25206;-69
2021/01/04 09:32:10;;;;;;;51.73;35.27;;;;;;;2.57;94.99;99833.08;1753598;81;25144;-69
2021/01/04 09:34:36;;;;;;;50.93;34.40;;;;;;;2.58;94.92;99833.48;1753597;81;25223;-68
2021/01/04 09:37:11;;;;;;;51.33;33.07;;;;;;;2.64;94.99;99824.58;1753437;81;25367;-67
2021/01/04 09:39:39;;;;;;;58.60;39.40;;;;;;;2.66;94.92;99829.72;1753285;81;25737;-68
2021/01/04 09:42:09;;;;;;;53.00;35.80;;;;;;;2.69;94.95;99825.70;1753612;81;25127;-68
2021/01/04 09:44:35;;;;;;;53.80;38.23;;;;;;;2.72;94.78;99828.17;1731195;81;25722;-67
2021/01/04 09:47:25;;;;;;;57.53;37.13;;;;;;;2.73;94.84;99820.75;1753457;81;25313;-67
2021/01/04 09:49:57;;;;;;;58.67;37.03;;;;;;;2.75;94.71;99816.36;1753509;81;25268;-68
2021/01/04 09:52:38;;;;;;;58.87;39.60;;;;;;;2.77;94.59;99815.37;1753638;81;25283;-69
2021/01/04 09:55:09;;;;;;;50.60;36.30;;;;;;;2.73;94.45;99813.82;1753553;81;25891;-69
2021/01/04 09:57:42;;;;;;;56.33;40.57;;;;;;;2.75;94.48;99812.46;1753515;81;25709;-68
2021/01/04 10:00:23;;;;;;;58.27;40.03;;;;;;;2.76;94.48;99804.58;1753494;81;25291;-69
2021/01/04 10:03:11;;;;;;;55.30;39.70;;;;;;;2.82;94.58;99806.55;1744187;81;25227;-69
2021/01/04 10:05:44;;;;;;;60.60;40.77;;;;;;;2.83;94.38;99805.16;1753679;81;25290;-68
2021/01/04 10:08:19;;;;;;;53.33;38.53;;;;;;;2.83;94.45;99805.63;1753343;81;25294;-68
2021/01/04 10:11:03;;;;;;;51.63;36.60;;;;;;;2.90;94.63;99800.55;1713237;81;25702;-68
2021/01/04 10:13:32;;;;;;;49.63;34.10;;;;;;;3.00;94.60;99800.99;1760501;80;25340;-68
2021/01/04 10:16:01;;;;;;;56.63;39.23;;;;;;;3.05;94.32;99792.11;1764279;80;25851;-68
2021/01/04 10:18:51;;;;;;;57.17;39.90;;;;;;;3.06;94.33;99786.45;1764282;80;25294;-68
2021/01/04 10:21:21;;;;;;;55.67;37.23;;;;;;;3.11;94.47;99784.02;1764310;81;25266;-69
2021/01/04 10:24:06;;;;;;;54.37;38.03;;;;;;;3.18;94.35;99781.98;1764355;80;25221;-68
2021/01/04 10:26:45;;;;;;;50.77;36.30;;;;;;;3.18;94.08;99775.49;1764297;80;25410;-68
2021/01/04 10:29:18;;;;;;;54.50;38.63;;;;;;;3.18;94.05;99782.45;1764579;80;25126;-68
2021/01/04 10:31:45;;;;;;;50.37;36.47;;;;;;;3.17;94.15;99790.72;1732988;81;25717;-68
2021/01/04 10:34:17;;;;;;;48.93;36.03;;;;;;;3.15;94.10;99789.48;1764367;81;25224;-69
2021/01/04 10:37:02;;;;;;;50.03;37.47;;;;;;;3.21;94.20;99790.95;1764238;80;25219;-68
2021/01/04 10:39:36;;;;;;;50.00;37.23;;;;;;;3.26;94.21;99785.09;1764354;80;25219;-67
2021/01/04 10:42:10;;;;;;;51.93;36.77;;;;;;;3.32;94.24;99778.33;1735806;80;25317;-69
2021/01/04 10:44:36;;;;;;;50.33;37.00;;;;;;;3.32;93.89;99777.03;1704571;81;25130;-68
2021/01/04 10:47:20;;;;;;;49.30;36.10;;;;;;;3.28;93.74;99776.77;1733915;81;25726;-68
2021/01/04 10:49:47;;;;;;;56.13;39.00;;;;;;;3.27;93.77;99776.39;1734019;81;25143;-67
2021/01/04 10:52:22;;;;;;;54.47;38.83;;;;;;;3.27;93.81;99779.46;1733850;81;25270;-67
2021/01/04 10:54:48;;;;;;;36.10;24.83;;;;;;;3.30;93.92;99771.50;1733763;81;25147;-68
2021/01/04 10:57:24;;;;;;;52.03;37.10;;;;;;;3.39;94.01;99761.16;1733936;81;25677;-67
2021/01/04 11:00:16;;;;;;;52.90;37.60;;;;;;;3.33;93.56;99762.27;1734229;81;25300;-67
2021/01/04 11:02:49;;;;;;;53.33;38.13;;;;;;;3.29;93.75;99762.86;1734183;81;25285;-68
2021/01/04 11:05:20;;;;;;;52.80;38.07;;;;;;;3.28;93.86;99758.56;1734056;81;25115;-68
2021/01/04 11:07:47;;;;;;;50.40;36.50;;;;;;;3.36;94.03;99760.83;1734056;81;25636;-68
2021/01/04 11:10:25;;;;;;;54.33;39.50;;;;;;;3.39;93.86;99763.30;1734016;81;25183;-68
2021/01/04 11:12:56;;;;;;;49.63;35.93;;;;;;;3.34;93.84;99753.56;1733679;81;25135;-69
2021/01/04 11:15:35;;;;;;;49.37;35.17;;;;;;;3.26;93.74;99756.50;1731618;81;25143;-68
2021/01/04 11:18:09;;;;;;;57.63;39.07;;;;;;;3.21;93.86;99758.94;1731674;81;25156;-68
2021/01/04 11:20:37;;;;;;;56.60;39.57;;;;;;;3.15;94.03;99752.23;1731781;81;25063;-68
2021/01/04 11:23:10;;;;;;;51.80;36.57;;;;;;;3.18;94.25;99757.30;1731747;81;25352;-68
2021/01/04 11:25:39;;;;;;;49.00;34.53;;;;;;;3.24;94.39;99758.33;1731814;81;25203;-68
2021/01/04 11:28:06;;;;;;;54.80;39.17;;;;;;;3.24;94.28;99754.90;1713475;81;25573;-69
2021/01/04 11:30:33;;;;;;;57.03;40.13;;;;;;;3.23;94.43;99754.03;1731548;81;25314;-68
2021/01/04 11:33:00;;;;;;;57.77;40.80;;;;;;;3.33;94.53;99753.16;1731793;81;25119;-68
2021/01/04 11:35:28;;;;;;;58.50;39.73;;;;;;;3.41;94.62;99747.63;1731670;81;25136;-67
2021/01/04 11:37:55;;;;;;;53.93;36.97;;;;;;;3.49;94.50;99753.31;1731677;81;25131;-68
2021/01/04 11:40:22;;;;;;;53.03;37.30;;;;;;;3.53;94.22;99756.14;1731719;81;25665;-68
2021/01/04 11:42:49;;;;;;;57.23;41.50;;;;;;;3.43;93.81;99747.09;1731649;81;25116;-69
2021/01/04 11:45:19;;;;;;;52.37;36.17;;;;;;;3.32;93.86;99740.63;1731820;81;25207;-68
2021/01/04 11:47:46;;;;;;;54.87;38.93;;;;;;;3.28;93.98;99735.17;1731713;81;25206;-68
2021/01/04 11:50:15;;;;;;;55.70;38.17;;;;;;;3.28;94.18;99741.67;1731643;81;25316;-68
2021/01/04 11:52:42;;;;;;;56.00;38.77;;;;;;;3.29;94.37;99731.67;1731687;81;25269;-68
2021/01/04 11:55:10;;;;;;;60.00;42.53;;;;;;;3.34;94.41;99739.27;1731572;81;25491;-68
2021/01/04 11:57:38;;;;;;;51.27;37.67;;;;;;;3.37;94.62;99741.73;1713074;81;25203;-67
2021/01/04 12:00:10;;;;;;;54.67;40.23;;;;;;;3.42;94.91;99756.66;1731684;81;25147;-68
2021/01/04 12:02:37;;;;;;;61.27;42.10;;;;;;;3.44;94.85;99747.02;1731734;81;25509;-68
2021/01/04 12:05:05;;;;;;;64.83;44.47;;;;;;;3.47;94.73;99756.42;1731651;82;25175;-68
2021/01/04 12:07:32;;;;;;;64.93;45.10;;;;;;;3.52;94.76;99758.38;1731485;81;25155;-68
2021/01/04 12:09:58;;;;;;;65.77;44.57;;;;;;;3.56;94.81;99763.81;1731737;81;25523;-68
2021/01/04 12:12:25;;;;;;;70.37;46.20;;;;;;;3.59;94.80;99764.98;1731655;81;25206;-68
2021/01/04 12:14:53;;;;;;;63.60;43.63;;;;;;;3.61;94.77;99768.34;1731691;81;25131;-68
2021/01/04 12:19:57;;;;;;;58.57;40.80;;;;;;;3.72;94.68;99756.16;1852763;77;26627;-68
2021/01/04 12:22:24;;;;;;;60.43;40.60;;;;;;;3.66;94.64;99755.13;1788529;79;25310;-68
2021/01/04 12:24:51;;;;;;;63.50;41.27;;;;;;;3.62;94.48;99751.83;1788462;79;25228;-68
2021/01/04 12:27:18;;;;;;;71.23;46.97;;;;;;;3.59;94.58;99757.64;1725731;81;25307;-68